map of KSMQ home
KSMQ - Airport
Location
City:  Somerville, New Jersey, United States
Name:Somerset Airport
ICAO:KSMQ
FAA LID:SMQ

Details
Type:Airport (Airfield)
Use:Public/Civil
Latitude:4037'34"N (40.625981)
Longitude:7440'12"W (-74.670031)
Datum:WGS 1984
Elevation:106 ft (32 m)
Variation:12.41W (WMM2015v2 magnetic declination)
0.05 annual change
Runways:3
Longest:2739 × 65 ft (835 × 20 m), paved

Time
Time Zone:UTC-5 (DST-4)
Local Time:

Weather
METAR:KSMQ 041353Z AUTO 00000KT 6SM BR CLR 01/M01 A3009 RMK AO2 SLP191 T00061011

Related Locations
Nearby:
Farthest:YAUG: 11745 mi / 18903 km
Augusta [Augusta Airport], WA, AU

Find:

   beyond  
but within

Other Information
Maps:
NOTAMs:
Links:
Sources:

  
  • flag of United States
  • flag of New Jersey
  

Sectional Chart

Flight Planning
at skyvector.com

Satellite Image

Google Maps Satellite view

 

Copyright © 2004-2019 Karl L. Swartz. All rights reserved.
The Great Circle Mapper name and logo are trademarks of the Great Circle Mapper.
All other trademarks mentioned herein belong to their respective owners.
Please see credits for attibutions and further copyright information.

  Follow gcmap on Facebook Follow gcmap on Twitter GCmap on LinkedIn

hCard Microformat

Geo Microformat